createdAt,value
2023-10-10T00:00:29.246Z,95038.44
2023-10-10T00:01:31.706Z,95040.44
2023-10-10T00:02:33.634Z,95040.41
2023-10-10T00:03:41.703Z,95038.66
2023-10-10T00:04:44.984Z,95045.97
2023-10-10T00:05:46.744Z,95037.94
2023-10-10T00:06:51.193Z,95045.25
2023-10-10T00:07:54.716Z,95040.38
2023-10-10T00:08:57.199Z,95040.75
2023-10-10T00:10:01.008Z,95031.97
2023-10-10T00:11:16.041Z,95033.47
2023-10-10T00:12:26.962Z,95031.13
2023-10-10T00:13:29.020Z,95040.03
2023-10-10T00:14:31.017Z,95033.47
2023-10-10T00:15:39.758Z,95036.06
2023-10-10T00:16:42.245Z,95028.34
2023-10-10T00:17:44.079Z,95019.69
2023-10-10T00:18:46.165Z,95024.19
2023-10-10T00:19:55.778Z,95026.91
2023-10-10T00:21:10.716Z,95026.31
2023-10-10T00:22:12.941Z,95022.66
2023-10-10T00:23:17.986Z,95019.72
2023-10-10T00:24:21.857Z,95025.25
2023-10-10T00:25:29.751Z,95024.50
2023-10-10T00:26:31.567Z,95029.78
2023-10-10T00:27:34.364Z,95019.50
2023-10-10T00:28:36.466Z,95025.09
2023-10-10T00:29:38.191Z,95020.91
2023-10-10T00:30:44.884Z,95017.63
2023-10-10T00:31:56.290Z,95020.00
2023-10-10T00:32:58.010Z,95015.72
2023-10-10T00:33:59.713Z,95018.31
2023-10-10T00:35:01.401Z,95012.38
2023-10-10T00:36:04.731Z,95020.63
2023-10-10T00:37:09.759Z,95014.56
2023-10-10T00:38:23.925Z,95006.72
2023-10-10T00:39:31.687Z,95007.31
2023-10-10T00:40:39.680Z,95010.13
2023-10-10T00:42:04.099Z,95017.50
2023-10-10T00:43:13.327Z,95013.25
2023-10-10T00:44:17.365Z,95017.09
2023-10-10T00:45:22.304Z,95022.50
2023-10-10T00:46:25.708Z,95017.63
2023-10-10T00:47:27.508Z,95026.25
2023-10-10T00:48:31.385Z,95016.28
2023-10-10T00:49:35.215Z,95022.16
2023-10-10T00:50:38.702Z,95025.75
2023-10-10T00:51:42.208Z,95021.66
2023-10-10T00:52:46.712Z,95021.41
2023-10-10T00:54:09.857Z,95025.28
2023-10-10T00:55:12.476Z,95022.34
2023-10-10T00:56:15.370Z,95029.00
2023-10-10T00:57:21.026Z,95022.25
2023-10-10T00:58:26.416Z,95022.50
2023-10-10T00:59:44.024Z,95033.00
2023-10-10T01:00:46.288Z,95025.69
2023-10-10T01:01:48.782Z,95025.03
2023-10-10T01:03:02.339Z,95020.25
2023-10-10T01:04:09.045Z,95018.66
2023-10-10T01:05:13.930Z,95015.19
2023-10-10T01:06:25.814Z,95014.50
2023-10-10T01:07:28.170Z,95016.25
2023-10-10T01:08:50.883Z,95013.50
2023-10-10T01:09:54.397Z,95013.25
2023-10-10T01:10:57.774Z,95009.75
2023-10-10T01:11:59.925Z,95003.25
2023-10-10T01:13:01.940Z,95010.75
2023-10-10T01:14:05.008Z,95013.06
2023-10-10T01:15:26.869Z,95006.75
2023-10-10T01:16:28.695Z,94996.31
2023-10-10T01:17:31.953Z,95002.72
2023-10-10T01:18:41.077Z,95000.13
2023-10-10T01:19:49.572Z,95001.28
2023-10-10T01:20:51.384Z,94997.19
2023-10-10T01:21:59.065Z,94994.69
2023-10-10T01:23:04.839Z,94988.94
2023-10-10T01:24:12.987Z,95004.97
2023-10-10T01:25:34.011Z,95002.78
2023-10-10T01:26:39.547Z,95006.28
2023-10-10T01:27:41.185Z,95005.34
2023-10-10T01:28:42.928Z,95003.81
2023-10-10T01:30:13.596Z,95004.94
2023-10-10T01:31:19.265Z,95002.63
2023-10-10T01:32:21.693Z,95014.28
2023-10-10T01:33:37.033Z,95012.09
2023-10-10T01:34:45.333Z,95010.13
2023-10-10T01:35:47.152Z,95014.41
2023-10-10T01:36:51.600Z,95010.28
2023-10-10T01:37:56.459Z,95010.69
2023-10-10T01:39:00.937Z,95017.06
2023-10-10T01:40:19.146Z,95018.19
2023-10-10T01:41:24.825Z,95012.97
2023-10-10T01:42:32.986Z,95015.22
2023-10-10T01:43:34.732Z,95024.94
2023-10-10T01:44:38.398Z,95023.06
2023-10-10T01:45:42.891Z,95027.72
2023-10-10T01:46:45.304Z,95027.09
2023-10-10T01:48:03.991Z,95025.94
2023-10-10T01:49:12.020Z,95024.31
2023-10-10T01:50:14.630Z,95022.63
2023-10-10T01:51:16.685Z,95029.31
2023-10-10T01:52:19.032Z,95026.13
2023-10-10T01:53:20.743Z,95030.41
2023-10-10T01:54:24.525Z,95031.16
2023-10-10T01:55:26.501Z,95034.31
2023-10-10T01:56:28.492Z,95028.72
2023-10-10T01:57:30.266Z,95027.41
2023-10-10T01:58:31.865Z,95032.66
2023-10-10T01:59:37.017Z,95027.03
2023-10-10T02:00:38.946Z,95027.81
2023-10-10T02:01:42.837Z,95019.94
2023-10-10T02:02:44.834Z,95022.22
2023-10-10T02:03:47.850Z,95030.06
2023-10-10T02:04:52.698Z,95031.38
2023-10-10T02:05:57.203Z,95031.22
2023-10-10T02:07:05.677Z,95031.03
2023-10-10T02:08:18.257Z,95026.69
2023-10-10T02:09:27.870Z,95030.81
2023-10-10T02:10:33.758Z,95035.66
2023-10-10T02:11:35.479Z,95044.81
2023-10-10T02:12:37.187Z,95041.84
2023-10-10T02:13:40.763Z,95052.09
2023-10-10T02:14:45.608Z,95048.53
2023-10-10T02:15:47.269Z,95053.94
2023-10-10T02:16:55.241Z,95052.78
2023-10-10T02:17:57.633Z,95057.28
2023-10-10T02:19:00.589Z,95048.53
2023-10-10T02:20:19.683Z,95051.34
2023-10-10T02:21:33.246Z,95047.56
2023-10-10T02:22:34.999Z,95045.28
2023-10-10T02:23:37.120Z,95051.44
2023-10-10T02:24:42.035Z,95052.41
2023-10-10T02:25:47.356Z,95048.84
2023-10-10T02:26:52.953Z,95054.22
2023-10-10T02:27:56.345Z,95050.50
2023-10-10T02:29:16.986Z,95054.44
2023-10-10T02:30:36.017Z,95044.94
2023-10-10T02:31:42.098Z,95045.13
2023-10-10T02:32:43.837Z,95041.94
2023-10-10T02:33:57.005Z,95040.44
2023-10-10T02:35:17.256Z,95037.47
2023-10-10T02:36:31.755Z,95039.00
2023-10-10T02:37:42.244Z,95035.59
2023-10-10T02:38:56.898Z,95046.41
2023-10-10T02:40:27.723Z,95044.56
2023-10-10T02:41:39.405Z,95040.44
2023-10-10T02:42:51.712Z,95041.94
2023-10-10T02:44:08.351Z,95040.28
2023-10-10T02:45:14.423Z,95037.81
2023-10-10T02:46:19.511Z,95039.13
2023-10-10T02:47:32.408Z,95028.13
2023-10-10T02:48:39.269Z,95033.00
2023-10-10T02:49:43.746Z,95028.28
2023-10-10T02:50:45.372Z,95021.38
2023-10-10T02:51:49.673Z,95020.63
2023-10-10T02:53:00.865Z,95023.63
2023-10-10T02:54:11.352Z,95019.13
2023-10-10T02:55:23.945Z,95015.41
2023-10-10T02:56:25.856Z,95025.13
2023-10-10T02:57:27.560Z,95030.72
2023-10-10T02:58:29.711Z,95020.63
2023-10-10T02:59:39.212Z,95031.44
2023-10-10T03:00:40.959Z,95026.22
2023-10-10T03:01:57.093Z,95029.22
2023-10-10T03:03:00.526Z,95031.13
2023-10-10T03:04:04.539Z,95033.38
2023-10-10T03:05:06.474Z,95024.41
2023-10-10T03:06:12.149Z,95022.38
2023-10-10T03:07:20.877Z,95029.63
2023-10-10T03:08:30.251Z,95023.63
2023-10-10T03:10:00.711Z,95019.72
2023-10-10T03:11:03.843Z,95024.41
2023-10-10T03:12:06.902Z,95011.31
2023-10-10T03:13:27.275Z,95022.19
2023-10-10T03:14:30.109Z,95019.91
2023-10-10T03:15:34.363Z,95010.41
2023-10-10T03:16:45.473Z,95015.25
2023-10-10T03:17:54.322Z,95014.69
2023-10-10T03:18:55.965Z,95014.69
2023-10-10T03:20:14.482Z,95015.25
2023-10-10T03:21:25.807Z,95027.00
2023-10-10T03:22:32.670Z,95025.72
2023-10-10T03:23:44.776Z,95029.28
2023-10-10T03:25:04.747Z,95019.38
2023-10-10T03:26:07.442Z,95028.88
2023-10-10T03:27:29.313Z,95027.38
2023-10-10T03:28:35.004Z,95036.72
2023-10-10T03:29:47.960Z,95031.13
2023-10-10T03:30:55.020Z,95044.19
2023-10-10T03:32:16.968Z,95045.34
2023-10-10T03:33:38.847Z,95046.03
2023-10-10T03:34:46.648Z,95040.44
2023-10-10T03:36:00.680Z,95042.63
2023-10-10T03:37:20.616Z,95043.03
2023-10-10T03:38:37.180Z,95044.69
2023-10-10T03:39:51.284Z,95042.47
2023-10-10T03:40:55.893Z,95053.50
2023-10-10T03:42:26.705Z,95048.25
2023-10-10T03:43:46.862Z,95049.75
2023-10-10T03:45:06.729Z,95051.25
2023-10-10T03:46:26.645Z,95056.50
2023-10-10T03:47:46.859Z,95058.75
2023-10-10T03:49:06.840Z,95052.34
2023-10-10T03:50:27.479Z,95059.44
2023-10-10T03:51:47.431Z,95057.75
2023-10-10T03:53:07.629Z,95053.44
2023-10-10T03:54:27.885Z,95057.94
2023-10-10T03:55:48.175Z,95056.47
2023-10-10T03:57:08.060Z,95058.50
2023-10-10T03:58:27.964Z,95052.75
2023-10-10T03:59:48.418Z,95062.63
2023-10-10T04:01:13.359Z,95063.75
2023-10-10T04:02:33.298Z,95064.75
2023-10-10T04:03:53.569Z,95071.84
2023-10-10T04:05:26.573Z,95070.00
2023-10-10T04:06:48.172Z,95068.16
2023-10-10T04:08:10.176Z,95063.63
2023-10-10T04:09:30.321Z,95063.09
2023-10-10T04:10:50.407Z,95067.94
2023-10-10T04:12:10.794Z,95061.03
2023-10-10T04:13:30.664Z,95063.44
2023-10-10T04:14:50.565Z,95071.66
2023-10-10T04:16:10.553Z,95068.63
2023-10-10T04:17:31.075Z,95066.97
2023-10-10T04:18:51.378Z,95074.59
2023-10-10T04:20:11.429Z,95067.16
2023-10-10T04:21:32.370Z,95072.00
2023-10-10T04:22:52.306Z,95075.75
2023-10-10T04:24:13.365Z,95072.97
2023-10-10T04:25:33.995Z,95070.34
2023-10-10T04:26:53.948Z,95073.34
2023-10-10T04:28:14.550Z,95067.75
2023-10-10T04:29:34.790Z,95074.06
2023-10-10T04:30:54.916Z,95074.44
2023-10-10T04:32:14.999Z,95072.63
2023-10-10T04:33:35.185Z,95077.66
2023-10-10T04:34:55.714Z,95072.22
2023-10-10T04:36:15.980Z,95077.09
2023-10-10T04:37:36.247Z,95075.81
2023-10-10T04:38:56.517Z,95078.41
2023-10-10T04:40:16.533Z,95078.75
2023-10-10T04:41:36.747Z,95080.44
2023-10-10T04:42:56.624Z,95082.69
2023-10-10T04:44:18.269Z,95082.28
2023-10-10T04:45:38.624Z,95084.91
2023-10-10T04:46:58.692Z,95086.00
2023-10-10T04:48:18.780Z,95092.75
2023-10-10T04:49:39.091Z,95083.03
2023-10-10T04:50:58.783Z,95076.16
2023-10-10T04:52:18.946Z,95075.56
2023-10-10T04:53:39.322Z,95086.41
2023-10-10T04:54:59.402Z,95090.16
2023-10-10T04:56:20.022Z,95105.09
2023-10-10T04:57:39.991Z,95103.81
2023-10-10T04:59:00.236Z,95099.50
2023-10-10T05:00:20.199Z,95103.97
2023-10-10T05:01:40.331Z,95109.03
2023-10-10T05:03:00.524Z,95108.25
2023-10-10T05:04:21.141Z,95109.22
2023-10-10T05:05:41.276Z,95100.25
2023-10-10T05:07:01.496Z,95102.53
2023-10-10T05:08:22.149Z,95115.56
2023-10-10T05:09:42.715Z,95118.72
2023-10-10T05:11:02.832Z,95126.72
2023-10-10T05:12:23.207Z,95128.78
2023-10-10T05:13:43.645Z,95122.09
2023-10-10T05:15:03.601Z,95122.28
2023-10-10T05:16:23.897Z,95121.00
2023-10-10T05:17:44.328Z,95126.78
2023-10-10T05:19:04.518Z,95121.00
2023-10-10T05:20:25.461Z,95120.38
2023-10-10T05:21:45.390Z,95116.88
2023-10-10T05:23:05.345Z,95125.69
2023-10-10T05:24:10.500Z,95124.38
2023-10-10T05:25:15.400Z,95126.78
2023-10-10T05:26:21.094Z,95127.88
2023-10-10T05:27:30.997Z,95128.03
2023-10-10T05:28:33.698Z,95123.19
2023-10-10T05:29:35.570Z,95129.88
2023-10-10T05:30:46.959Z,95131.59
2023-10-10T05:31:48.980Z,95131.06
2023-10-10T05:33:02.220Z,95121.00
2023-10-10T05:34:04.802Z,95129.41
2023-10-10T05:35:12.643Z,95128.44
2023-10-10T05:36:14.987Z,95130.50
2023-10-10T05:37:16.728Z,95130.69
2023-10-10T05:38:18.550Z,95131.59
2023-10-10T05:39:22.480Z,95125.78
2023-10-10T05:40:27.719Z,95137.19
2023-10-10T05:41:29.366Z,95140.19
2023-10-10T05:42:35.233Z,95132.16
2023-10-10T05:43:37.500Z,95131.59
2023-10-10T05:44:40.501Z,95133.81
2023-10-10T05:45:45.315Z,95135.28
2023-10-10T05:46:48.900Z,95138.28
2023-10-10T05:47:51.330Z,95139.81
2023-10-10T05:48:53.126Z,95141.28
2023-10-10T05:49:55.195Z,95141.28
2023-10-10T05:50:56.831Z,95142.03
2023-10-10T05:51:58.668Z,95150.09
2023-10-10T05:53:07.236Z,95145.81
2023-10-10T05:54:12.239Z,95137.59
2023-10-10T05:55:15.017Z,95137.97
2023-10-10T05:56:20.356Z,95144.00
2023-10-10T05:57:22.044Z,95141.41
2023-10-10T05:58:23.692Z,95145.13
2023-10-10T05:59:25.623Z,95140.34
2023-10-10T06:00:28.643Z,95147.75
2023-10-10T06:01:32.003Z,95148.91
2023-10-10T06:02:33.899Z,95142.97
2023-10-10T06:03:35.936Z,95145.41
2023-10-10T06:04:38.130Z,95144.13
2023-10-10T06:05:46.264Z,95146.38
2023-10-10T06:06:48.094Z,95147.16
2023-10-10T06:07:50.874Z,95148.09
2023-10-10T06:09:01.613Z,95161.03
2023-10-10T06:10:07.250Z,95143.84
2023-10-10T06:11:15.401Z,95150.94
2023-10-10T06:12:17.404Z,95147.25
2023-10-10T06:13:20.632Z,95143.72
2023-10-10T06:14:22.720Z,95143.72
2023-10-10T06:15:24.969Z,95133.22
2023-10-10T06:16:26.876Z,95142.38
2023-10-10T06:17:30.057Z,95139.03
2023-10-10T06:18:32.376Z,95142.19
2023-10-10T06:19:34.367Z,95136.97
2023-10-10T06:20:54.591Z,95140.91
2023-10-10T06:22:03.604Z,95134.16
2023-10-10T06:23:07.930Z,95147.66
2023-10-10T06:24:09.626Z,95136.56
2023-10-10T06:25:11.892Z,95135.28
2023-10-10T06:26:14.253Z,95143.88
2023-10-10T06:27:16.201Z,95137.72
2023-10-10T06:28:36.425Z,95145.38
2023-10-10T06:29:41.663Z,95137.56
2023-10-10T06:30:45.084Z,95136.25
2023-10-10T06:31:47.029Z,95131.97
2023-10-10T06:32:49.106Z,95133.06
2023-10-10T06:33:51.880Z,95138.50
2023-10-10T06:35:13.937Z,95131.19
2023-10-10T06:36:24.763Z,95131.00
2023-10-10T06:37:28.874Z,95136.59
2023-10-10T06:38:30.682Z,95139.63
2023-10-10T06:39:35.168Z,95139.81
2023-10-10T06:40:56.634Z,95138.50
2023-10-10T06:41:59.745Z,95141.28
2023-10-10T06:43:08.984Z,95142.78
2023-10-10T06:44:19.259Z,95143.19
2023-10-10T06:45:23.591Z,95152.53
2023-10-10T06:46:25.315Z,95149.75
2023-10-10T06:47:30.090Z,95145.81
2023-10-10T06:48:42.086Z,95154.81
2023-10-10T06:49:59.276Z,95152.56
2023-10-10T06:51:02.693Z,95155.78
2023-10-10T06:52:04.494Z,95149.97
2023-10-10T06:53:06.397Z,95155.56
2023-10-10T06:54:10.008Z,95159.28
2023-10-10T06:55:22.255Z,95152.72
2023-10-10T06:56:44.561Z,95168.81
2023-10-10T06:57:53.597Z,95164.91
2023-10-10T06:58:58.060Z,95166.78
2023-10-10T06:59:59.992Z,95169.41
2023-10-10T07:01:06.012Z,95162.28
2023-10-10T07:02:21.791Z,95166.78
2023-10-10T07:03:32.119Z,95166.78
2023-10-10T07:04:37.081Z,95170.53
2023-10-10T07:05:40.870Z,95167.13
2023-10-10T07:06:49.693Z,95171.28
2023-10-10T07:07:58.655Z,95174.66
2023-10-10T07:09:18.635Z,95177.09
2023-10-10T07:10:49.681Z,95188.69
2023-10-10T07:11:51.325Z,95174.56
2023-10-10T07:12:59.357Z,95175.88
2023-10-10T07:14:01.153Z,95170.63
2023-10-10T07:15:07.693Z,95172.69
2023-10-10T07:16:10.230Z,95178.31
2023-10-10T07:17:15.639Z,95171.00
2023-10-10T07:18:17.390Z,95179.19
2023-10-10T07:19:20.849Z,95172.06
2023-10-10T07:20:22.685Z,95166.47
2023-10-10T07:21:37.482Z,95176.94
2023-10-10T07:22:39.232Z,95165.72
2023-10-10T07:24:03.849Z,95166.47
2023-10-10T07:25:39.710Z,95175.88
2023-10-10T07:26:43.081Z,95169.91
2023-10-10T07:27:45.506Z,95169.91
2023-10-10T07:28:51.113Z,95171.56
2023-10-10T07:29:52.753Z,95174.38
2023-10-10T07:30:55.651Z,95171.56
2023-10-10T07:32:17.551Z,95161.66
2023-10-10T07:33:23.859Z,95170.06
2023-10-10T07:34:36.010Z,95168.59
2023-10-10T07:35:44.594Z,95173.97
2023-10-10T07:36:51.793Z,95176.63
2023-10-10T07:38:00.389Z,95185.97
2023-10-10T07:39:20.856Z,95175.91
2023-10-10T07:40:29.546Z,95175.69
2023-10-10T07:41:31.536Z,95176.63
2023-10-10T07:42:36.132Z,95180.75
2023-10-10T07:43:39.162Z,95185.59
2023-10-10T07:44:43.085Z,95185.59
2023-10-10T07:45:44.982Z,95181.50
2023-10-10T07:47:06.429Z,95180.19
2023-10-10T07:48:08.266Z,95183.72
2023-10-10T07:49:10.287Z,95180.72
2023-10-10T07:50:12.004Z,95179.19
2023-10-10T07:51:18.976Z,95183.91
2023-10-10T07:52:23.803Z,95187.88
2023-10-10T07:53:34.084Z,95171.38
2023-10-10T07:54:42.216Z,95184.66
2023-10-10T07:55:59.372Z,95191.22
2023-10-10T07:57:08.724Z,95197.38
2023-10-10T07:58:11.826Z,95192.16
2023-10-10T07:59:14.642Z,95188.25
2023-10-10T08:00:18.908Z,95179.25
2023-10-10T08:01:20.774Z,95182.63
2023-10-10T08:02:43.014Z,95186.94
2023-10-10T08:03:46.811Z,95187.91
2023-10-10T08:04:51.723Z,95183.94
2023-10-10T08:05:53.372Z,95186.75
2023-10-10T08:06:55.003Z,95177.78
2023-10-10T08:07:57.184Z,95189.00
2023-10-10T08:09:31.221Z,95183.38
2023-10-10T08:10:39.739Z,95186.78
2023-10-10T08:11:41.795Z,95176.47
2023-10-10T08:12:44.656Z,95186.38
2023-10-10T08:13:49.878Z,95186.38
2023-10-10T08:14:55.992Z,95186.38
2023-10-10T08:15:57.783Z,95190.69
2023-10-10T08:17:01.186Z,95195.94
2023-10-10T08:18:04.647Z,95197.22
2023-10-10T08:19:07.045Z,95196.47
2023-10-10T08:20:29.038Z,95192.72
2023-10-10T08:21:36.583Z,95196.81
2023-10-10T08:22:38.245Z,95191.03
2023-10-10T08:23:44.443Z,95191.22
2023-10-10T08:24:46.448Z,95189.72
2023-10-10T08:25:49.742Z,95197.75
2023-10-10T08:26:53.029Z,95193.63
2023-10-10T08:27:56.312Z,95197.56
2023-10-10T08:28:58.044Z,95191.56
2023-10-10T08:29:59.764Z,95191.31
2023-10-10T08:31:01.520Z,95183.28
2023-10-10T08:32:06.511Z,95179.94
2023-10-10T08:33:08.262Z,95187.41
2023-10-10T08:34:10.649Z,95195.25
2023-10-10T08:35:12.432Z,95200.53
2023-10-10T08:36:25.116Z,95187.84
2023-10-10T08:37:28.801Z,95197.94
2023-10-10T08:38:30.525Z,95193.84
2023-10-10T08:39:37.970Z,95197.16
2023-10-10T08:40:42.172Z,95181.47
2023-10-10T08:41:45.268Z,95193.44
2023-10-10T08:42:51.552Z,95193.03
2023-10-10T08:44:02.600Z,95203.50
2023-10-10T08:45:05.843Z,95193.72
2023-10-10T08:46:10.729Z,95196.53
2023-10-10T08:47:20.530Z,95193.72
2023-10-10T08:48:27.727Z,95200.31
2023-10-10T08:49:29.816Z,95204.38
2023-10-10T08:50:34.736Z,95212.06
2023-10-10T08:51:37.040Z,95199.72
2023-10-10T08:52:41.449Z,95206.84
2023-10-10T08:53:43.454Z,95214.72
2023-10-10T08:54:46.906Z,95205.69
2023-10-10T08:55:57.694Z,95205.13
2023-10-10T08:57:05.708Z,95201.19
2023-10-10T08:58:11.974Z,95206.25
2023-10-10T08:59:13.917Z,95196.53
2023-10-10T09:00:18.987Z,95213.56
2023-10-10T09:01:21.268Z,95207.00
2023-10-10T09:02:22.986Z,95205.53
2023-10-10T09:03:24.711Z,95208.84
2023-10-10T09:04:31.936Z,95209.81
2023-10-10T09:05:33.830Z,95205.13
2023-10-10T09:06:53.365Z,95204.59
2023-10-10T09:07:56.097Z,95210.59
2023-10-10T09:09:01.426Z,95212.88
2023-10-10T09:10:06.479Z,95201.22
2023-10-10T09:11:10.771Z,95202.53
2023-10-10T09:12:15.893Z,95212.44
2023-10-10T09:13:18.526Z,95207.94
2023-10-10T09:14:20.388Z,95199.34
2023-10-10T09:15:22.487Z,95212.06
2023-10-10T09:16:45.787Z,95211.66
2023-10-10T09:17:48.683Z,95208.34
2023-10-10T09:19:11.952Z,95202.53
2023-10-10T09:20:24.569Z,95213.19
2023-10-10T09:21:26.594Z,95199.38
2023-10-10T09:22:43.814Z,95199.38
2023-10-10T09:23:54.162Z,95205.59
2023-10-10T09:25:00.909Z,95210.66
2023-10-10T09:26:25.556Z,95197.13
2023-10-10T09:27:37.197Z,95202.72
2023-10-10T09:29:00.266Z,95215.81
2023-10-10T09:30:10.579Z,95210.47
2023-10-10T09:31:21.624Z,95207.66
2023-10-10T09:32:35.974Z,95202.78
2023-10-10T09:33:43.834Z,95210.47
2023-10-10T09:34:50.167Z,95217.78
2023-10-10T09:36:00.133Z,95201.69
2023-10-10T09:37:06.776Z,95205.25
2023-10-10T09:38:16.607Z,95209.34
2023-10-10T09:39:37.912Z,95205.44
2023-10-10T09:40:43.777Z,95207.50
2023-10-10T09:42:07.863Z,95207.28
2023-10-10T09:43:25.271Z,95209.00
2023-10-10T09:44:27.318Z,95201.72
2023-10-10T09:45:51.133Z,95205.84
2023-10-10T09:47:13.914Z,95203.56
2023-10-10T09:48:29.389Z,95206.94
2023-10-10T09:49:40.826Z,95204.53
2023-10-10T09:51:07.781Z,95207.53
2023-10-10T09:52:35.682Z,95201.72
2023-10-10T09:53:38.199Z,95198.75
2023-10-10T09:54:41.195Z,95199.28
2023-10-10T09:55:45.221Z,95196.50
2023-10-10T09:56:51.929Z,95186.78
2023-10-10T09:58:02.774Z,95193.88
2023-10-10T09:59:08.751Z,95194.06
2023-10-10T10:00:23.868Z,95192.00
2023-10-10T10:01:28.398Z,95191.84
2023-10-10T10:02:44.990Z,95189.22
2023-10-10T10:03:56.403Z,95187.34
2023-10-10T10:04:58.487Z,95186.25
2023-10-10T10:06:28.967Z,95180.44
2023-10-10T10:08:07.765Z,95184.38
2023-10-10T10:09:34.058Z,95192.78
2023-10-10T10:10:49.974Z,95184.00
2023-10-10T10:12:32.440Z,95188.28
2023-10-10T10:14:08.832Z,95182.09
2023-10-10T10:15:50.125Z,95181.75
2023-10-10T10:17:14.459Z,95177.81
2023-10-10T10:18:30.817Z,95176.69
2023-10-10T10:19:34.903Z,95178.94
2023-10-10T10:20:48.073Z,95175.75
2023-10-10T10:22:09.596Z,95179.31
2023-10-10T10:23:28.454Z,95179.88
2023-10-10T10:24:31.962Z,95177.81
2023-10-10T10:25:37.921Z,95173.72
2023-10-10T10:26:46.277Z,95170.34
2023-10-10T10:27:50.658Z,95165.66
2023-10-10T10:28:58.316Z,95173.34
2023-10-10T10:30:20.048Z,95159.66
2023-10-10T10:31:31.352Z,95165.50
2023-10-10T10:32:36.459Z,95167.19
2023-10-10T10:33:54.122Z,95159.31
2023-10-10T10:34:59.512Z,95164.38
2023-10-10T10:36:16.373Z,95170.34
2023-10-10T10:37:22.560Z,95165.44
2023-10-10T10:38:25.003Z,95154.75
2023-10-10T10:39:27.491Z,95166.31
2023-10-10T10:40:40.887Z,95167.97
2023-10-10T10:41:43.798Z,95159.63
2023-10-10T10:42:54.658Z,95161.53
2023-10-10T10:44:10.279Z,95161.78
2023-10-10T10:46:05.283Z,95159.28
2023-10-10T10:47:06.934Z,95160.00
2023-10-10T10:48:10.727Z,95149.31
2023-10-10T10:49:13.555Z,95151.72
2023-10-10T10:50:29.974Z,95150.47
2023-10-10T10:51:43.033Z,95155.75
2023-10-10T10:52:58.151Z,95153.47
2023-10-10T10:54:00.364Z,95152.97
2023-10-10T10:55:23.660Z,95158.31
2023-10-10T10:56:39.046Z,95156.59
2023-10-10T10:57:50.244Z,95155.81
2023-10-10T10:58:52.587Z,95146.44
2023-10-10T10:59:56.780Z,95147.25
2023-10-10T11:01:10.230Z,95145.66
2023-10-10T11:02:16.681Z,95149.28
2023-10-10T11:03:18.563Z,95153.91
2023-10-10T11:04:40.958Z,95143.41
2023-10-10T11:05:43.259Z,95140.09
2023-10-10T11:07:02.145Z,95143.59
2023-10-10T11:08:13.215Z,95146.22
2023-10-10T11:09:26.746Z,95142.31
2023-10-10T11:10:38.289Z,95151.19
2023-10-10T11:11:41.851Z,95143.41
2023-10-10T11:12:43.673Z,95151.56
2023-10-10T11:13:48.885Z,95147.88
2023-10-10T11:14:54.555Z,95147.75
2023-10-10T11:16:11.871Z,95158.75
2023-10-10T11:17:20.684Z,95148.00
2023-10-10T11:18:36.328Z,95157.50
2023-10-10T11:19:41.573Z,95155.66
2023-10-10T11:21:08.252Z,95153.63
2023-10-10T11:22:36.353Z,95154.75
2023-10-10T11:23:44.671Z,95149.56
2023-10-10T11:24:49.005Z,95150.69
2023-10-10T11:26:01.743Z,95154.06
2023-10-10T11:27:12.788Z,95148.66
2023-10-10T11:28:23.333Z,95150.47
2023-10-10T11:29:29.253Z,95142.25
2023-10-10T11:30:32.896Z,95139.25
2023-10-10T11:31:36.758Z,95143.00
2023-10-10T11:32:47.828Z,95148.25
2023-10-10T11:33:56.249Z,95150.31
2023-10-10T11:35:21.083Z,95143.94
2023-10-10T11:36:31.069Z,95150.88
2023-10-10T11:37:34.731Z,95146.53
2023-10-10T11:38:37.780Z,95141.47
2023-10-10T11:39:48.143Z,95144.81
2023-10-10T11:40:54.142Z,95147.84
2023-10-10T11:41:55.902Z,95148.41
2023-10-10T11:43:05.931Z,95142.78
2023-10-10T11:44:07.639Z,95145.13
2023-10-10T11:45:18.985Z,95141.22
2023-10-10T11:46:22.245Z,95152.44
2023-10-10T11:47:26.223Z,95148.53
2023-10-10T11:48:30.186Z,95144.34
2023-10-10T11:49:33.543Z,95155.25
2023-10-10T11:50:58.515Z,95149.97
2023-10-10T11:52:00.661Z,95142.66
2023-10-10T11:53:02.504Z,95142.94
2023-10-10T11:54:04.524Z,95144.09
2023-10-10T11:55:09.565Z,95145.22
2023-10-10T11:56:15.215Z,95149.63
2023-10-10T11:57:16.992Z,95139.97
2023-10-10T11:58:19.091Z,95145.78
2023-10-10T11:59:20.812Z,95146.75
2023-10-10T12:00:30.336Z,95139.50
2023-10-10T12:01:48.654Z,95141.00
2023-10-10T12:02:51.014Z,95138.41
2023-10-10T12:04:06.228Z,95146.63
2023-10-10T12:05:30.342Z,95135.47
2023-10-10T12:06:32.050Z,95136.59
2023-10-10T12:07:41.455Z,95142.94
2023-10-10T12:08:48.241Z,95140.34
2023-10-10T12:09:53.169Z,95138.09
2023-10-10T12:11:13.405Z,95133.06
2023-10-10T12:12:16.899Z,95132.91
2023-10-10T12:13:28.215Z,95136.44
2023-10-10T12:14:32.218Z,95133.97
2023-10-10T12:15:34.018Z,95131.84
2023-10-10T12:16:35.957Z,95134.34
2023-10-10T12:17:39.658Z,95140.34
2023-10-10T12:19:01.251Z,95126.16
2023-10-10T12:20:04.675Z,95139.09
2023-10-10T12:21:06.345Z,95133.09
2023-10-10T12:22:12.540Z,95138.16
2023-10-10T12:23:17.859Z,95138.72
2023-10-10T12:24:19.547Z,95134.06
2023-10-10T12:25:21.558Z,95142.13
2023-10-10T12:26:23.723Z,95137.06
2023-10-10T12:27:31.376Z,95134.94
2023-10-10T12:28:33.424Z,95138.31
2023-10-10T12:29:42.049Z,95144.31
2023-10-10T12:30:44.062Z,95138.41
2023-10-10T12:31:45.912Z,95145.13
2023-10-10T12:32:50.738Z,95150.50
2023-10-10T12:33:55.324Z,95143.97
2023-10-10T12:35:01.038Z,95144.72
2023-10-10T12:36:08.707Z,95143.03
2023-10-10T12:37:10.848Z,95145.13
2023-10-10T12:38:13.376Z,95140.16
2023-10-10T12:39:16.389Z,95141.72
2023-10-10T12:40:18.263Z,95147.50
2023-10-10T12:41:22.798Z,95138.09
2023-10-10T12:42:24.476Z,95138.94
2023-10-10T12:43:26.649Z,95136.53
2023-10-10T12:44:28.339Z,95144.66
2023-10-10T12:45:30.617Z,95153.09
2023-10-10T12:46:32.410Z,95142.84
2023-10-10T12:47:34.591Z,95141.53
2023-10-10T12:48:42.582Z,95147.94
2023-10-10T12:49:46.095Z,95143.34
2023-10-10T12:50:49.373Z,95139.56
2023-10-10T12:51:55.022Z,95140.31
2023-10-10T12:53:09.143Z,95138.50
2023-10-10T12:54:14.157Z,95142.28
2023-10-10T12:55:17.952Z,95144.50
2023-10-10T12:56:21.251Z,95142.28
2023-10-10T12:57:24.481Z,95149.03
2023-10-10T12:58:26.131Z,95151.47
2023-10-10T12:59:32.925Z,95138.09
2023-10-10T13:00:36.354Z,95139.22
2023-10-10T13:01:38.386Z,95135.16
2023-10-10T13:02:40.137Z,95133.16
2023-10-10T13:03:48.652Z,95137.34
2023-10-10T13:04:53.579Z,95146.63
2023-10-10T13:06:01.854Z,95142.50
2023-10-10T13:07:04.565Z,95135.59
2023-10-10T13:08:07.948Z,95143.81
2023-10-10T13:09:09.939Z,95131.31
2023-10-10T13:10:11.844Z,95136.72
2023-10-10T13:11:16.283Z,95141.00
2023-10-10T13:12:33.961Z,95133.91
2023-10-10T13:13:46.521Z,95134.56
2023-10-10T13:14:54.902Z,95140.59
2023-10-10T13:16:09.219Z,95139.06
2023-10-10T13:17:26.085Z,95133.13
2023-10-10T13:18:27.969Z,95130.91
2023-10-10T13:19:31.728Z,95135.00
2023-10-10T13:20:33.373Z,95131.09
2023-10-10T13:21:38.025Z,95137.72
2023-10-10T13:22:39.652Z,95139.97
2023-10-10T13:23:44.956Z,95137.75
2023-10-10T13:24:46.668Z,95142.66
2023-10-10T13:25:50.141Z,95137.03
2023-10-10T13:26:52.025Z,95140.22
2023-10-10T13:27:54.015Z,95135.13
2023-10-10T13:28:56.034Z,95136.44
2023-10-10T13:29:57.858Z,95139.25
2023-10-10T13:31:03.398Z,95135.50